Buoy 52609

sailwx.info

Track history (hours):
 
Tides and Currents Weather Stations Pressure Air Temp Water Temp Dewpoint Dewpoint Depression Visibility Wind Speed Wind Dir Waves Ship Positions

Drifting buoy 52609

Last reported at 2014-Sep-17 23:00 UTC. Time now 2014-Sep-17 23:39 UTC.
Position N 12°48' E 154°40'.

Water temperature 29.7 ° C

Date/timePositionNaut miles runAvg speedWind from/ knotsBaromVisibWave heightAir tempDewpointWater temp
2014-Sep-17 23:00N 12°48' E 154°40'0 0.0 29.7
2014-Sep-17 20:00N 12°48' E 154°40'1 1.1 29.7
2014-Sep-17 19:00N 12°48' E 154°41'0 0.1 29.7
2014-Sep-17 18:00N 12°48' E 154°41'1 0.5 29.7
2014-Sep-17 17:00N 12°48' E 154°41'0 0.0 29.7
2014-Sep-17 15:00N 12°48' E 154°41'1 0.5 29.7
2014-Sep-17 12:00N 12°49' E 154°42'1 0.3 29.7
2014-Sep-17 10:00N 12°50' E 154°43'1 0.2 29.7
2014-Sep-17 06:00N 12°49' E 154°42'0 0.0 29.7
2014-Sep-17 04:00N 12°49' E 154°42'2 1.5 29.9
2014-Sep-17 03:00N 12°48' E 154°41'0 0.0 29.8
2014-Sep-17 02:00N 12°48' E 154°41'1 1.4 29.8
2014-Sep-17 01:00N 12°48' E 154°40'1 1.0 29.8
2014-Sep-17 00:00N 12°47' E 154°40'2 1.9 29.8
2014-Sep-16 23:00N 12°45' E 154°40'0 0.1 29.8
2014-Sep-16 19:00N 12°45' E 154°40'0 0.2 29.8
2014-Sep-16 17:00N 12°45' E 154°40'1 1.0 29.9
2014-Sep-16 16:00N 12°44' E 154°39'3 2.9 29.9
2014-Sep-16 15:00N 12°41' E 154°39'2 0.5 29.9
2014-Sep-16 11:00N 12°40' E 154°41'0 0.0 30.2
2014-Sep-16 10:00N 12°40' E 154°41'1 0.7 30.2
2014-Sep-16 08:00N 12°39' E 154°41'1 0.2 30.4
2014-Sep-16 05:00N 12°38' E 154°40'1 0.3 30.8
2014-Sep-16 03:00N 12°38' E 154°41'0 0.0 30.7
2014-Sep-16 02:00N 12°38' E 154°41'4 1.0 30.4
2014-Sep-15 22:00N 12°37' E 154°45'1 0.2 29.8
2014-Sep-15 19:00N 12°37' E 154°45'0 0.2 29.7
2014-Sep-15 18:00N 12°37' E 154°45'2 0.5 29.7
2014-Sep-15 15:00N 12°37' E 154°46'0 0.0 29.7
2014-Sep-15 14:00N 12°37' E 154°46'1 0.5 29.7
2014-Sep-15 12:00N 12°38' E 154°46'1 0.5 29.7
2014-Sep-15 10:00N 12°39' E 154°47'2 0.6 29.7
2014-Sep-15 07:00N 12°40' E 154°46'0 0.0 29.8
2014-Sep-15 06:00N 12°40' E 154°46'0 0.0 29.8
2014-Sep-15 05:00N 12°40' E 154°46'1 1.4 29.8
2014-Sep-15 04:00N 12°41' E 154°45'0 0.0 29.8
2014-Sep-15 03:00N 12°41' E 154°45'1 0.4 29.9
2014-Sep-15 00:00N 12°40' E 154°44'1 0.2 29.8
2014-Sep-14 20:00N 12°40' E 154°43'2 0.8 29.7
2014-Sep-14 18:00N 12°39' E 154°42'0 0.0 29.7
2014-Sep-14 16:00N 12°39' E 154°42'0 0.0 29.7
2014-Sep-14 15:00N 12°39' E 154°42'1 0.4 29.7
2014-Sep-14 11:00N 12°38' E 154°41'1 0.4 29.8
2014-Sep-14 09:00N 12°38' E 154°42'1 0.3 29.8
2014-Sep-14 06:00N 12°38' E 154°41'0 0.0 29.8
2014-Sep-14 05:00N 12°38' E 154°41'1 0.8 29.9
2014-Sep-14 04:00N 12°37' E 154°40'0 0.0 29.9
2014-Sep-14 03:00N 12°37' E 154°40'3 0.4 29.9
2014-Sep-13 20:00N 12°36' E 154°43'0 0.0 29.8
2014-Sep-13 19:00N 12°36' E 154°43'1 0.2 29.8
2014-Sep-13 11:00N 12°35' E 154°42'0 0.3 29.9
2014-Sep-13 10:00N 12°34' E 154°41'0 0.1 29.9
2014-Sep-13 08:00N 12°35' E 154°41'5 0.6 29.9
2014-Sep-12 23:00N 12°31' E 154°44'0 0.0 29.9
2014-Sep-12 19:00N 12°31' E 154°44'0 0.5 29.9
2014-Sep-12 18:00N 12°31' E 154°45'0 0.0 29.9
2014-Sep-12 17:00N 12°31' E 154°45'0 0.1 29.9
2014-Sep-12 16:00N 12°30' E 154°45'1 1.1 30.0
2014-Sep-12 15:00N 12°30' E 154°44'3 0.5 30.0
2014-Sep-12 09:00N 12°29' E 154°47'2 0.9 30.0
2014-Sep-12 07:00N 12°29' E 154°49'1 0.7 30.1
2014-Sep-12 05:00N 12°30' E 154°50'0 0.1 30.4
2014-Sep-12 03:00N 12°30' E 154°50'1 0.1 30.3
2014-Sep-11 20:00N 12°30' E 154°50'1 1.2 29.9
2014-Sep-11 19:00N 12°30' E 154°51'1 0.3 29.9
2014-Sep-11 16:00N 12°31' E 154°52'0 0.0 29.9
2014-Sep-11 15:00N 12°31' E 154°52'1 1.0 29.9
2014-Sep-11 14:00N 12°32' E 154°52'0 0.1 29.9
2014-Sep-11 10:00N 12°32' E 154°52'1 0.8 30.0
2014-Sep-11 09:00N 12°32' E 154°53'1 0.2 30.0
2014-Sep-11 06:00N 12°32' E 154°54'1 0.3 30.2
2014-Sep-11 02:00N 12°33' E 154°52'2 0.6 30.1
2014-Sep-10 22:00N 12°31' E 154°52'2 0.8 29.9
2014-Sep-10 20:00N 12°32' E 154°53'1 0.9 29.9
2014-Sep-10 19:00N 12°31' E 154°54'0 0.3 29.9
2014-Sep-10 18:00N 12°31' E 154°54'1 0.6 29.9
2014-Sep-10 16:00N 12°31' E 154°56'1 0.6 29.9
2014-Sep-10 15:00N 12°31' E 154°55'1 0.3 29.9
2014-Sep-10 11:00N 12°30' E 154°54'1 0.3 30.0
2014-Sep-10 08:00N 12°29' E 154°55'1 1.3 30.0
2014-Sep-10 07:00N 12°30' E 154°56'1 0.6 30.0
2014-Sep-10 06:00N 12°29' E 154°57'0 0.0 30.1
2014-Sep-10 04:00N 12°29' E 154°57'5 0.4 30.1
2014-Sep-09 16:00N 12°25' E 154°59'0 0.0 30.0
2014-Sep-09 15:00N 12°25' E 154°59'2 0.4 30.0
2014-Sep-09 10:00N 12°24' E 155°01'0 0.0 30.0
2014-Sep-09 09:00N 12°24' E 155°01'0 0.0 30.0
2014-Sep-09 08:00N 12°24' E 155°01'2 0.6 30.0
2014-Sep-09 04:00N 12°24' E 155°03'0 0.0 30.1
2014-Sep-09 03:00N 12°24' E 155°03'2 0.6 30.1
2014-Sep-08 23:00N 12°24' E 155°01'0 0.0 30.0
2014-Sep-08 22:00N 12°24' E 155°01'1 0.5 30.0
2014-Sep-08 20:00N 12°23' E 155°00'1 0.5 30.0
2014-Sep-08 18:00N 12°23' E 155°01'0 0.0 30.0
2014-Sep-08 17:00N 12°23' E 155°01'2 0.4 30.0
2014-Sep-08 11:00N 12°21' E 155°01'1 0.5 30.0
2014-Sep-08 10:00N 12°20' E 155°01'5 1.2 30.1
2014-Sep-08 06:00N 12°18' E 155°06'0 0.0 30.1
2014-Sep-08 04:00N 12°18' E 155°06'1 1.3 30.2
2014-Sep-08 03:00N 12°18' E 155°07'0 0.0 30.2
2014-Sep-08 02:00N 12°18' E 155°07'3 0.9 30.2
2014-Sep-07 23:00N 12°16' E 155°09'   30.0
Track history (hours):
 
Tides and Currents Weather Stations Pressure Air Temp Water Temp Dewpoint Dewpoint Depression Visibility Wind Speed Wind Dir Waves Ship Positions

Drifting buoy 52609

Last reported at 2014-Sep-17 23:00 UTC. Time now 2014-Sep-17 23:39 UTC.
Position N 12°48' E 154°40'.

Water temperature 29.7 ° C

Date/timePositionNaut miles runAvg speedWind from/ knotsBaromVisibWave heightAir tempDewpointWater temp
2014-Sep-17 23:00N 12°48' E 154°40'0 0.0 29.7
2014-Sep-17 20:00N 12°48' E 154°40'1 1.1 29.7
2014-Sep-17 19:00N 12°48' E 154°41'0 0.1 29.7
2014-Sep-17 18:00N 12°48' E 154°41'1 0.5 29.7
2014-Sep-17 17:00N 12°48' E 154°41'0 0.0 29.7
2014-Sep-17 15:00N 12°48' E 154°41'1 0.5 29.7
2014-Sep-17 12:00N 12°49' E 154°42'1 0.3 29.7
2014-Sep-17 10:00N 12°50' E 154°43'1 0.2 29.7
2014-Sep-17 06:00N 12°49' E 154°42'0 0.0 29.7
2014-Sep-17 04:00N 12°49' E 154°42'2 1.5 29.9
2014-Sep-17 03:00N 12°48' E 154°41'0 0.0 29.8
2014-Sep-17 02:00N 12°48' E 154°41'1 1.4 29.8
2014-Sep-17 01:00N 12°48' E 154°40'1 1.0 29.8
2014-Sep-17 00:00N 12°47' E 154°40'2 1.9 29.8
2014-Sep-16 23:00N 12°45' E 154°40'0 0.1 29.8
2014-Sep-16 19:00N 12°45' E 154°40'0 0.2 29.8
2014-Sep-16 17:00N 12°45' E 154°40'1 1.0 29.9
2014-Sep-16 16:00N 12°44' E 154°39'3 2.9 29.9
2014-Sep-16 15:00N 12°41' E 154°39'2 0.5 29.9
2014-Sep-16 11:00N 12°40' E 154°41'0 0.0 30.2
2014-Sep-16 10:00N 12°40' E 154°41'1 0.7 30.2
2014-Sep-16 08:00N 12°39' E 154°41'1 0.2 30.4
2014-Sep-16 05:00N 12°38' E 154°40'1 0.3 30.8
2014-Sep-16 03:00N 12°38' E 154°41'0 0.0 30.7
2014-Sep-16 02:00N 12°38' E 154°41'4 1.0 30.4
2014-Sep-15 22:00N 12°37' E 154°45'1 0.2 29.8
2014-Sep-15 19:00N 12°37' E 154°45'0 0.2 29.7
2014-Sep-15 18:00N 12°37' E 154°45'2 0.5 29.7
2014-Sep-15 15:00N 12°37' E 154°46'0 0.0 29.7
2014-Sep-15 14:00N 12°37' E 154°46'1 0.5 29.7
2014-Sep-15 12:00N 12°38' E 154°46'1 0.5 29.7
2014-Sep-15 10:00N 12°39' E 154°47'2 0.6 29.7
2014-Sep-15 07:00N 12°40' E 154°46'0 0.0 29.8
2014-Sep-15 06:00N 12°40' E 154°46'0 0.0 29.8
2014-Sep-15 05:00N 12°40' E 154°46'1 1.4 29.8
2014-Sep-15 04:00N 12°41' E 154°45'0 0.0 29.8
2014-Sep-15 03:00N 12°41' E 154°45'1 0.4 29.9
2014-Sep-15 00:00N 12°40' E 154°44'1 0.2 29.8
2014-Sep-14 20:00N 12°40' E 154°43'2 0.8 29.7
2014-Sep-14 18:00N 12°39' E 154°42'0 0.0 29.7
2014-Sep-14 16:00N 12°39' E 154°42'0 0.0 29.7
2014-Sep-14 15:00N 12°39' E 154°42'1 0.4 29.7
2014-Sep-14 11:00N 12°38' E 154°41'1 0.4 29.8
2014-Sep-14 09:00N 12°38' E 154°42'1 0.3 29.8
2014-Sep-14 06:00N 12°38' E 154°41'0 0.0 29.8
2014-Sep-14 05:00N 12°38' E 154°41'1 0.8 29.9
2014-Sep-14 04:00N 12°37' E 154°40'0 0.0 29.9
2014-Sep-14 03:00N 12°37' E 154°40'3 0.4 29.9
2014-Sep-13 20:00N 12°36' E 154°43'0 0.0 29.8
2014-Sep-13 19:00N 12°36' E 154°43'1 0.2 29.8
2014-Sep-13 11:00N 12°35' E 154°42'0 0.3 29.9
2014-Sep-13 10:00N 12°34' E 154°41'0 0.1 29.9
2014-Sep-13 08:00N 12°35' E 154°41'5 0.6 29.9
2014-Sep-12 23:00N 12°31' E 154°44'0 0.0 29.9
2014-Sep-12 19:00N 12°31' E 154°44'0 0.5 29.9
2014-Sep-12 18:00N 12°31' E 154°45'0 0.0 29.9
2014-Sep-12 17:00N 12°31' E 154°45'0 0.1 29.9
2014-Sep-12 16:00N 12°30' E 154°45'1 1.1 30.0
2014-Sep-12 15:00N 12°30' E 154°44'3 0.5 30.0
2014-Sep-12 09:00N 12°29' E 154°47'2 0.9 30.0
2014-Sep-12 07:00N 12°29' E 154°49'1 0.7 30.1
2014-Sep-12 05:00N 12°30' E 154°50'0 0.1 30.4
2014-Sep-12 03:00N 12°30' E 154°50'1 0.1 30.3
2014-Sep-11 20:00N 12°30' E 154°50'1 1.2 29.9
2014-Sep-11 19:00N 12°30' E 154°51'1 0.3 29.9
2014-Sep-11 16:00N 12°31' E 154°52'0 0.0 29.9
2014-Sep-11 15:00N 12°31' E 154°52'1 1.0 29.9
2014-Sep-11 14:00N 12°32' E 154°52'0 0.1 29.9
2014-Sep-11 10:00N 12°32' E 154°52'1 0.8 30.0
2014-Sep-11 09:00N 12°32' E 154°53'1 0.2 30.0
2014-Sep-11 06:00N 12°32' E 154°54'1 0.3 30.2
2014-Sep-11 02:00N 12°33' E 154°52'2 0.6 30.1
2014-Sep-10 22:00N 12°31' E 154°52'2 0.8 29.9
2014-Sep-10 20:00N 12°32' E 154°53'1 0.9 29.9
2014-Sep-10 19:00N 12°31' E 154°54'0 0.3 29.9
2014-Sep-10 18:00N 12°31' E 154°54'1 0.6 29.9
2014-Sep-10 16:00N 12°31' E 154°56'1 0.6 29.9
2014-Sep-10 15:00N 12°31' E 154°55'1 0.3 29.9
2014-Sep-10 11:00N 12°30' E 154°54'1 0.3 30.0
2014-Sep-10 08:00N 12°29' E 154°55'1 1.3 30.0
2014-Sep-10 07:00N 12°30' E 154°56'1 0.6 30.0
2014-Sep-10 06:00N 12°29' E 154°57'0 0.0 30.1
2014-Sep-10 04:00N 12°29' E 154°57'5 0.4 30.1
2014-Sep-09 16:00N 12°25' E 154°59'0 0.0 30.0
2014-Sep-09 15:00N 12°25' E 154°59'2 0.4 30.0
2014-Sep-09 10:00N 12°24' E 155°01'0 0.0 30.0
2014-Sep-09 09:00N 12°24' E 155°01'0 0.0 30.0
2014-Sep-09 08:00N 12°24' E 155°01'2 0.6 30.0
2014-Sep-09 04:00N 12°24' E 155°03'0 0.0 30.1
2014-Sep-09 03:00N 12°24' E 155°03'2 0.6 30.1
2014-Sep-08 23:00N 12°24' E 155°01'0 0.0 30.0
2014-Sep-08 22:00N 12°24' E 155°01'1 0.5 30.0
2014-Sep-08 20:00N 12°23' E 155°00'1 0.5 30.0
2014-Sep-08 18:00N 12°23' E 155°01'0 0.0 30.0
2014-Sep-08 17:00N 12°23' E 155°01'2 0.4 30.0
2014-Sep-08 11:00N 12°21' E 155°01'1 0.5 30.0
2014-Sep-08 10:00N 12°20' E 155°01'5 1.2 30.1
2014-Sep-08 06:00N 12°18' E 155°06'0 0.0 30.1
2014-Sep-08 04:00N 12°18' E 155°06'1 1.3 30.2
2014-Sep-08 03:00N 12°18' E 155°07'0 0.0 30.2
2014-Sep-08 02:00N 12°18' E 155°07'3 0.9 30.2
2014-Sep-07 23:00N 12°16' E 155°09'   30.0

Dump ship's entire track history